Time;durP1;ratioP1;P1;durP2;ratioP2;P2;SDS_P1;SDS_P2;PMS_P1;PMS_P2;Temp;Humidity;BMP_temperature;BMP_pressure;BME280_temperature;BME280_humidity;BME280_pressure;Samples;Min_cycle;Max_cycle;Signal;HPM_P1;HPM_P2
2024/04/01 00:00:09;;;;;;;;;;;;;;;;;;412591;24;911;-83
2024/04/01 00:00:20;;;;;;;;;;;;;;;;;;412455;24;1279;-83
2024/04/01 00:00:30;;;;;;;;;;;;;;;;;;412556;24;983;-83
2024/04/01 00:00:40;;;;;;;;;;;;;;;;;;410655;24;1225;-83
2024/04/01 00:00:51;;;;;;;;;;;;;;;;;;414372;23;1344;-82
2024/04/01 00:01:02;;;;;;;;;;;;;;;;;;414558;23;793;-83
2024/04/01 00:01:12;;;;;;;;;;;;;;;;;;414225;23;979;-83
2024/04/01 00:01:22;;;;;;;;;;;;;;;;;;414451;23;1241;-83
2024/04/01 00:01:33;;;;;;;;;;;;;;;;;;414190;23;904;-82
2024/04/01 00:01:43;;;;;;;;;;;;;;;;;;416527;23;1002;-82
2024/04/01 00:01:53;;;;;;;;;;;;;;;;;;418374;23;938;-83
2024/04/01 00:02:03;;;;;;;;;;;;;;;;;;418519;23;803;-83
2024/04/01 00:02:14;;;;;;;;;;;;;;;;;;416334;23;950;-82
2024/04/01 00:02:24;;;;;;;;;;;;;;;;;;416345;23;1347;-82
2024/04/01 00:02:34;;;;;;;;;;;;;;;;;;414304;23;1296;-82
2024/04/01 00:02:44;;;;;;;;;;;;;;;;;;414340;23;1157;-83
2024/04/01 00:02:55;;;;;;;;;;;;;;;;;;414269;23;1353;-82
2024/04/01 00:03:05;;;;;;;;;;;;;;;;;;416583;23;777;-82
2024/04/01 00:03:15;;;;;;;;;;;;;;;;;;418408;23;819;-82
2024/04/01 00:03:26;;;;;;;;;;;;;;;;;;414131;23;1211;-81
2024/04/01 00:03:36;;;;;;;;;;;;;;;;;;414285;23;1146;-81
2024/04/01 00:03:46;;;;;;;;;;;;;;;;;;412645;24;828;-82
2024/04/01 00:03:56;;;;;;;;;;;;;;;;;;412607;24;990;-82
2024/04/01 00:04:07;;;;;;;;;;;;;;;;;;414545;23;939;-82
2024/04/01 00:04:17;;;;;;;;;;;;;;;;;;412501;24;1311;-82
2024/04/01 00:04:27;;;;;;;;;;;;;;;;;;412519;24;1261;-82
2024/04/01 00:04:37;;;;;;;;;;;;;;;;;;412590;24;955;-82
2024/04/01 00:04:48;;;;;;;;;;;;;;;;;;412640;24;967;-82
2024/04/01 00:04:58;;;;;;;;;;;;;;;;;;410526;24;1289;-83
2024/04/01 00:05:08;;;;;;;;;;;;;;;;;;410509;24;979;-82
2024/04/01 00:05:18;;;;;;;;;;;;;;;;;;410574;24;1018;-82
2024/04/01 00:05:29;;;;;;;;;;;;;;;;;;412436;24;1337;-82
2024/04/01 00:05:39;;;;;;;;;;;;;;;;;;416389;23;1200;-83
2024/04/01 00:05:53;;;;;;;;;;;;;;;;;;412479;24;1321;-83
2024/04/01 00:06:03;;;;;;;;;;;;;;;;;;412308;24;998;-82
2024/04/01 00:06:13;;;;;;;;;;;;;;;;;;414467;23;987;-83
2024/04/01 00:06:23;;;;;;;;;;;;;;;;;;414288;23;967;-82
2024/04/01 00:06:34;;;;;;;;;;;;;;;;;;414593;23;832;-82
2024/04/01 00:06:44;;;;;;;;;;;;;;;;;;414416;23;1292;-82
2024/04/01 00:06:55;;;;;;;;;;;;;;;;;;412572;24;1090;-82
2024/04/01 00:07:05;;;;;;;;;;;;;;;;;;416512;23;1259;-81
2024/04/01 00:07:15;;;;;;;;;;;;;;;;;;416562;23;954;-82
2024/04/01 00:07:25;;;;;;;;;;;;;;;;;;416380;23;1176;-82
2024/04/01 00:07:35;;;;;;;;;;;;;;;;;;416487;23;777;-82
2024/04/01 00:07:48;;;;;;;;;;;;;;;;;;416542;23;1268;-82
2024/04/01 00:07:59;;;;;;;;;;;;;;;;;;414577;23;1075;-82
2024/04/01 00:08:09;;;;;;;;;;;;;;;;;;414584;23;836;-82
2024/04/01 00:08:20;;;;;;;;;;;;;;;;;;412563;24;1207;-82
2024/04/01 00:08:31;;;;;;;;;;;;;;;;;;414260;23;1309;-81
2024/04/01 00:08:41;;;;;;;;;;;;;;;;;;414587;23;950;-82
2024/04/01 00:08:51;;;;;;;;;;;;;;;;;;414423;23;826;-82
2024/04/01 00:09:02;;;;;;;;;;;;;;;;;;416422;23;1372;-82
2024/04/01 00:09:12;;;;;;;;;;;;;;;;;;416365;23;915;-83
2024/04/01 00:09:22;;;;;;;;;;;;;;;;;;416456;23;890;-83
2024/04/01 00:09:32;;;;;;;;;;;;;;;;;;416303;23;828;-83
2024/04/01 00:09:42;;;;;;;;;;;;;;;;;;414512;23;1022;-82
2024/04/01 00:09:53;;;;;;;;;;;;;;;;;;414608;23;908;-83
2024/04/01 00:10:05;;;;;;;;;;;;;;;;;;414419;23;1078;-83
2024/04/01 00:10:15;;;;;;;;;;;;;;;;;;414403;23;931;-82
2024/04/01 00:10:25;;;;;;;;;;;;;;;;;;416418;23;1184;-82
2024/04/01 00:10:36;;;;;;;;;;;;;;;;;;414493;23;1270;-83
2024/04/01 00:10:47;;;;;;;;;;;;;;;;;;416574;23;1348;-82
2024/04/01 00:10:57;;;;;;;;;;;;;;;;;;416503;23;955;-82
2024/04/01 00:11:07;;;;;;;;;;;;;;;;;;414624;23;967;-82
2024/04/01 00:11:18;;;;;;;;;;;;;;;;;;416498;23;998;-82
2024/04/01 00:11:28;;;;;;;;;;;;;;;;;;412490;24;1272;-82
2024/04/01 00:11:38;;;;;;;;;;;;;;;;;;412601;24;967;-82
2024/04/01 00:11:48;;;;;;;;;;;;;;;;;;412507;24;966;-82
2024/04/01 00:11:58;;;;;;;;;;;;;;;;;;416514;23;1278;-82
2024/04/01 00:12:09;;;;;;;;;;;;;;;;;;416365;23;1440;-82
2024/04/01 00:12:19;;;;;;;;;;;;;;;;;;414512;23;1307;-82
2024/04/01 00:12:29;;;;;;;;;;;;;;;;;;414539;23;863;-82
2024/04/01 00:12:39;;;;;;;;;;;;;;;;;;414312;23;955;-82
2024/04/01 00:12:50;;;;;;;;;;;;;;;;;;414283;23;1028;-82
2024/04/01 00:13:01;;;;;;;;;;;;;;;;;;414528;23;1030;-83
2024/04/01 00:13:11;;;;;;;;;;;;;;;;;;412529;24;958;-83
2024/04/01 00:13:21;;;;;;;;;;;;;;;;;;414488;23;815;-82
2024/04/01 00:13:32;;;;;;;;;;;;;;;;;;416331;23;1268;-83
2024/04/01 00:13:42;;;;;;;;;;;;;;;;;;416310;23;1017;-83
2024/04/01 00:13:53;;;;;;;;;;;;;;;;;;416450;23;1178;-82
2024/04/01 00:14:03;;;;;;;;;;;;;;;;;;414425;23;832;-82
2024/04/01 00:14:13;;;;;;;;;;;;;;;;;;412401;24;1294;-83
2024/04/01 00:14:24;;;;;;;;;;;;;;;;;;416396;23;1151;-83
2024/04/01 00:14:34;;;;;;;;;;;;;;;;;;416421;23;1009;-83
2024/04/01 00:14:45;;;;;;;;;;;;;;;;;;412615;24;991;-83
2024/04/01 00:14:55;;;;;;;;;;;;;;;;;;414503;23;1033;-82
2024/04/01 00:15:06;;;;;;;;;;;;;;;;;;412557;24;947;-83
2024/04/01 00:15:16;;;;;;;;;;;;;;;;;;410575;24;979;-83
2024/04/01 00:15:27;;;;;;;;;;;;;;;;;;410611;24;1339;-82
2024/04/01 00:15:39;;;;;;;;;;;;;;;;;;413989;23;1261;-82
2024/04/01 00:15:49;;;;;;;;;;;;;;;;;;414440;23;1010;-82
2024/04/01 00:15:59;;;;;;;;;;;;;;;;;;414384;23;946;-83
2024/04/01 00:16:09;;;;;;;;;;;;;;;;;;416445;23;1216;-83
2024/04/01 00:16:20;;;;;;;;;;;;;;;;;;416364;23;1210;-82
2024/04/01 00:16:30;;;;;;;;;;;;;;;;;;412391;23;754;-82
2024/04/01 00:16:41;;;;;;;;;;;;;;;;;;412422;24;1344;-83
2024/04/01 00:16:52;;;;;;;;;;;;;;;;;;412532;24;1207;-83
2024/04/01 00:17:02;;;;;;;;;;;;;;;;;;414544;23;741;-83
2024/04/01 00:17:12;;;;;;;;;;;;;;;;;;414337;23;1301;-83
2024/04/01 00:17:22;;;;;;;;;;;;;;;;;;416367;23;1292;-83
2024/04/01 00:17:33;;;;;;;;;;;;;;;;;;416496;23;788;-83
2024/04/01 00:17:43;;;;;;;;;;;;;;;;;;412478;24;1744;-83
2024/04/01 00:17:53;;;;;;;;;;;;;;;;;;412596;24;967;-83
2024/04/01 00:18:04;;;;;;;;;;;;;;;;;;412445;24;982;-82
2024/04/01 00:18:14;;;;;;;;;;;;;;;;;;412000;24;1223;-82
2024/04/01 00:18:24;;;;;;;;;;;;;;;;;;414390;23;974;-82
2024/04/01 00:18:34;;;;;;;;;;;;;;;;;;414410;23;1256;-83
2024/04/01 00:18:45;;;;;;;;;;;;;;;;;;416435;23;958;-83
2024/04/01 00:18:55;;;;;;;;;;;;;;;;;;412482;24;970;-83
2024/04/01 00:19:07;;;;;;;;;;;;;;;;;;414440;23;1443;-83
2024/04/01 00:19:17;;;;;;;;;;;;;;;;;;414568;23;1029;-83
2024/04/01 00:19:27;;;;;;;;;;;;;;;;;;414288;23;1253;-82
2024/04/01 00:19:37;;;;;;;;;;;;;;;;;;414362;23;1193;-83
2024/04/01 00:19:48;;;;;;;;;;;;;;;;;;416400;23;990;-83
2024/04/01 00:19:58;;;;;;;;;;;;;;;;;;416496;23;1202;-83
2024/04/01 00:20:08;;;;;;;;;;;;;;;;;;414411;23;1234;-82
2024/04/01 00:20:18;;;;;;;;;;;;;;;;;;414393;23;1191;-83
2024/04/01 00:20:29;;;;;;;;;;;;;;;;;;414322;23;998;-82
2024/04/01 00:20:39;;;;;;;;;;;;;;;;;;414440;23;978;-83
2024/04/01 00:20:56;;;;;;;;;;;;;;;;;;414231;23;1281;-83
2024/04/01 00:21:06;;;;;;;;;;;;;;;;;;412376;24;1292;-83
2024/04/01 00:21:17;;;;;;;;;;;;;;;;;;414421;23;1289;-83
2024/04/01 00:21:27;;;;;;;;;;;;;;;;;;414502;23;1045;-83
2024/04/01 00:21:37;;;;;;;;;;;;;;;;;;414490;23;1116;-82
2024/04/01 00:21:47;;;;;;;;;;;;;;;;;;414462;23;809;-82
2024/04/01 00:21:57;;;;;;;;;;;;;;;;;;412580;24;781;-83
2024/04/01 00:22:08;;;;;;;;;;;;;;;;;;410560;24;1290;-82
2024/04/01 00:22:18;;;;;;;;;;;;;;;;;;412438;24;986;-83
2024/04/01 00:22:28;;;;;;;;;;;;;;;;;;412535;24;974;-83
2024/04/01 00:22:39;;;;;;;;;;;;;;;;;;412512;24;927;-83
2024/04/01 00:22:49;;;;;;;;;;;;;;;;;;410720;24;974;-82
2024/04/01 00:22:59;;;;;;;;;;;;;;;;;;410401;24;1303;-82
2024/04/01 00:23:09;;;;;;;;;;;;;;;;;;410704;24;1034;-83
2024/04/01 00:23:19;;;;;;;;;;;;;;;;;;414331;23;1171;-83
2024/04/01 00:23:30;;;;;;;;;;;;;;;;;;414515;23;999;-83
2024/04/01 00:23:42;;;;;;;;;;;;;;;;;;414189;23;1331;-82
2024/04/01 00:23:56;;;;;;;;;;;;;;;;;;412480;24;907;-83
2024/04/01 00:24:06;;;;;;;;;;;;;;;;;;412535;24;805;-83
2024/04/01 00:24:16;;;;;;;;;;;;;;;;;;410623;24;1066;-82
2024/04/01 00:24:26;;;;;;;;;;;;;;;;;;412550;24;1018;-83
2024/04/01 00:24:37;;;;;;;;;;;;;;;;;;414543;23;1001;-82
2024/04/01 00:24:47;;;;;;;;;;;;;;;;;;412547;24;1170;-82
2024/04/01 00:24:58;;;;;;;;;;;;;;;;;;410530;24;1539;-83
2024/04/01 00:25:08;;;;;;;;;;;;;;;;;;412637;24;959;-83
2024/04/01 00:25:18;;;;;;;;;;;;;;;;;;416305;23;1202;-83
2024/04/01 00:25:29;;;;;;;;;;;;;;;;;;416310;23;998;-83
2024/04/01 00:25:39;;;;;;;;;;;;;;;;;;416496;23;974;-83
2024/04/01 00:25:49;;;;;;;;;;;;;;;;;;414471;23;1256;-82
2024/04/01 00:25:59;;;;;;;;;;;;;;;;;;412372;24;1291;-82
2024/04/01 00:26:09;;;;;;;;;;;;;;;;;;412468;24;1254;-83
2024/04/01 00:26:20;;;;;;;;;;;;;;;;;;414584;23;947;-83
2024/04/01 00:26:30;;;;;;;;;;;;;;;;;;414455;23;934;-83
2024/04/01 00:26:40;;;;;;;;;;;;;;;;;;414545;23;943;-83
2024/04/01 00:26:50;;;;;;;;;;;;;;;;;;410569;24;1197;-83
2024/04/01 00:27:01;;;;;;;;;;;;;;;;;;412495;24;971;-82
2024/04/01 00:27:11;;;;;;;;;;;;;;;;;;412513;24;749;-83
2024/04/01 00:27:21;;;;;;;;;;;;;;;;;;414555;23;1026;-82
2024/04/01 00:27:31;;;;;;;;;;;;;;;;;;414373;23;1026;-83
2024/04/01 00:27:42;;;;;;;;;;;;;;;;;;412636;24;884;-83
2024/04/01 00:27:52;;;;;;;;;;;;;;;;;;414294;23;1288;-82
2024/04/01 00:28:03;;;;;;;;;;;;;;;;;;414433;23;985;-83
2024/04/01 00:28:13;;;;;;;;;;;;;;;;;;414379;23;1301;-83
2024/04/01 00:28:23;;;;;;;;;;;;;;;;;;414433;23;1189;-83
2024/04/01 00:28:33;;;;;;;;;;;;;;;;;;414427;23;1163;-83
2024/04/01 00:28:43;;;;;;;;;;;;;;;;;;412449;24;1429;-82
2024/04/01 00:28:54;;;;;;;;;;;;;;;;;;412481;24;958;-82
2024/04/01 00:29:04;;;;;;;;;;;;;;;;;;412549;24;1018;-83
2024/04/01 00:29:14;;;;;;;;;;;;;;;;;;412501;24;1006;-83
2024/04/01 00:29:24;;;;;;;;;;;;;;;;;;410596;24;1271;-83
2024/04/01 00:29:35;;;;;;;;;;;;;;;;;;410516;24;994;-83
2024/04/01 00:29:45;;;;;;;;;;;;;;;;;;412520;24;1269;-83
2024/04/01 00:29:55;;;;;;;;;;;;;;;;;;412495;24;1937;-82
2024/04/01 00:30:05;;;;;;;;;;;;;;;;;;412586;24;1010;-83
2024/04/01 00:30:16;;;;;;;;;;;;;;;;;;412391;24;1159;-83
2024/04/01 00:30:26;;;;;;;;;;;;;;;;;;412605;24;970;-83
2024/04/01 00:30:36;;;;;;;;;;;;;;;;;;410518;24;1204;-83
2024/04/01 00:30:46;;;;;;;;;;;;;;;;;;412577;24;955;-82
2024/04/01 00:30:57;;;;;;;;;;;;;;;;;;412563;24;797;-83
2024/04/01 00:31:07;;;;;;;;;;;;;;;;;;412480;24;1030;-83
2024/04/01 00:31:17;;;;;;;;;;;;;;;;;;414208;23;1170;-82
2024/04/01 00:31:29;;;;;;;;;;;;;;;;;;414346;23;1492;-82
2024/04/01 00:31:39;;;;;;;;;;;;;;;;;;414396;23;1010;-83
2024/04/01 00:31:49;;;;;;;;;;;;;;;;;;414573;23;962;-83
2024/04/01 00:31:59;;;;;;;;;;;;;;;;;;414262;23;1340;-81
2024/04/01 00:32:10;;;;;;;;;;;;;;;;;;412477;24;931;-83
2024/04/01 00:32:20;;;;;;;;;;;;;;;;;;414394;23;1181;-82
2024/04/01 00:32:31;;;;;;;;;;;;;;;;;;418347;23;1162;-83
2024/04/01 00:32:41;;;;;;;;;;;;;;;;;;418320;23;1170;-83
2024/04/01 00:32:51;;;;;;;;;;;;;;;;;;418467;23;868;-83
2024/04/01 00:33:03;;;;;;;;;;;;;;;;;;416215;23;1199;-82
2024/04/01 00:33:13;;;;;;;;;;;;;;;;;;416438;23;846;-83
2024/04/01 00:33:23;;;;;;;;;;;;;;;;;;416506;23;951;-83
2024/04/01 00:33:33;;;;;;;;;;;;;;;;;;416458;23;998;-82
2024/04/01 00:33:43;;;;;;;;;;;;;;;;;;414394;23;1162;-83
2024/04/01 00:33:54;;;;;;;;;;;;;;;;;;414502;23;994;-83
2024/04/01 00:34:04;;;;;;;;;;;;;;;;;;414199;23;1329;-81
2024/04/01 00:34:14;;;;;;;;;;;;;;;;;;414511;23;968;-83
2024/04/01 00:34:24;;;;;;;;;;;;;;;;;;416381;23;943;-83
2024/04/01 00:34:34;;;;;;;;;;;;;;;;;;416519;23;950;-83
2024/04/01 00:34:45;;;;;;;;;;;;;;;;;;418407;23;986;-83
2024/04/01 00:34:55;;;;;;;;;;;;;;;;;;418411;23;910;-83
2024/04/01 00:35:05;;;;;;;;;;;;;;;;;;412469;24;1180;-83
2024/04/01 00:35:17;;;;;;;;;;;;;;;;;;412364;24;1278;-82
2024/04/01 00:35:27;;;;;;;;;;;;;;;;;;416352;23;1276;-83
2024/04/01 00:35:38;;;;;;;;;;;;;;;;;;414423;23;1268;-83
2024/04/01 00:35:48;;;;;;;;;;;;;;;;;;412519;24;1065;-83
2024/04/01 00:35:59;;;;;;;;;;;;;;;;;;416392;23;1154;-83
2024/04/01 00:36:09;;;;;;;;;;;;;;;;;;412530;24;947;-82
2024/04/01 00:36:21;;;;;;;;;;;;;;;;;;414367;23;1284;-83
2024/04/01 00:36:31;;;;;;;;;;;;;;;;;;416279;23;800;-82
2024/04/01 00:36:42;;;;;;;;;;;;;;;;;;416115;23;958;-82
2024/04/01 00:36:52;;;;;;;;;;;;;;;;;;418233;23;1224;-82
2024/04/01 00:37:02;;;;;;;;;;;;;;;;;;416457;23;986;-83
2024/04/01 00:37:12;;;;;;;;;;;;;;;;;;416473;23;890;-83
2024/04/01 00:37:23;;;;;;;;;;;;;;;;;;417166;23;1237;-83
2024/04/01 00:37:33;;;;;;;;;;;;;;;;;;418440;23;725;-83
2024/04/01 00:37:44;;;;;;;;;;;;;;;;;;416573;23;804;-83
2024/04/01 00:37:54;;;;;;;;;;;;;;;;;;414346;23;1250;-82
2024/04/01 00:38:04;;;;;;;;;;;;;;;;;;414439;23;1204;-83
2024/04/01 00:38:14;;;;;;;;;;;;;;;;;;414477;23;963;-83
2024/04/01 00:38:25;;;;;;;;;;;;;;;;;;416335;23;911;-82
2024/04/01 00:38:35;;;;;;;;;;;;;;;;;;416469;23;1010;-83
2024/04/01 00:38:45;;;;;;;;;;;;;;;;;;416404;23;1179;-83
2024/04/01 00:38:56;;;;;;;;;;;;;;;;;;414414;23;1304;-82
2024/04/01 00:39:06;;;;;;;;;;;;;;;;;;416450;23;992;-83
2024/04/01 00:39:16;;;;;;;;;;;;;;;;;;414348;23;1162;-83
2024/04/01 00:39:27;;;;;;;;;;;;;;;;;;412337;24;1388;-83
2024/04/01 00:39:37;;;;;;;;;;;;;;;;;;414448;23;963;-83
2024/04/01 00:39:47;;;;;;;;;;;;;;;;;;412562;23;891;-83
2024/04/01 00:39:57;;;;;;;;;;;;;;;;;;414505;23;931;-83
2024/04/01 00:40:08;;;;;;;;;;;;;;;;;;418355;23;1168;-83
2024/04/01 00:40:18;;;;;;;;;;;;;;;;;;418365;23;934;-82
2024/04/01 00:40:28;;;;;;;;;;;;;;;;;;418311;23;910;-82
2024/04/01 00:40:38;;;;;;;;;;;;;;;;;;416518;23;946;-83
2024/04/01 00:40:48;;;;;;;;;;;;;;;;;;416342;23;1309;-82
2024/04/01 00:40:59;;;;;;;;;;;;;;;;;;416490;23;966;-83
2024/04/01 00:41:09;;;;;;;;;;;;;;;;;;414366;23;934;-82
2024/04/01 00:41:19;;;;;;;;;;;;;;;;;;416434;23;935;-82
2024/04/01 00:41:29;;;;;;;;;;;;;;;;;;416323;23;1192;-82
2024/04/01 00:41:39;;;;;;;;;;;;;;;;;;416360;23;959;-82
2024/04/01 00:41:50;;;;;;;;;;;;;;;;;;418352;23;1263;-83
2024/04/01 00:42:00;;;;;;;;;;;;;;;;;;418393;23;970;-83
2024/04/01 00:42:10;;;;;;;;;;;;;;;;;;416446;23;776;-83
2024/04/01 00:42:21;;;;;;;;;;;;;;;;;;414567;23;982;-83
2024/04/01 00:42:31;;;;;;;;;;;;;;;;;;414500;23;967;-83
2024/04/01 00:42:41;;;;;;;;;;;;;;;;;;412412;24;1159;-82
2024/04/01 00:43:02;;;;;;;;;;;;;;;;;;414289;23;1309;-82
2024/04/01 00:43:12;;;;;;;;;;;;;;;;;;414431;23;955;-83
2024/04/01 00:43:25;;;;;;;;;;;;;;;;;;414429;23;958;-82
2024/04/01 00:43:35;;;;;;;;;;;;;;;;;;416403;23;938;-82
2024/04/01 00:43:45;;;;;;;;;;;;;;;;;;416275;23;958;-83
2024/04/01 00:43:56;;;;;;;;;;;;;;;;;;414502;23;979;-83
2024/04/01 00:44:06;;;;;;;;;;;;;;;;;;414529;23;998;-83
2024/04/01 00:44:16;;;;;;;;;;;;;;;;;;414409;23;994;-82
2024/04/01 00:44:27;;;;;;;;;;;;;;;;;;414338;23;1412;-83
2024/04/01 00:44:37;;;;;;;;;;;;;;;;;;414385;23;1022;-82
2024/04/01 00:44:47;;;;;;;;;;;;;;;;;;414552;23;1022;-83
2024/04/01 00:44:57;;;;;;;;;;;;;;;;;;414210;23;1202;-82
2024/04/01 00:45:09;;;;;;;;;;;;;;;;;;412520;24;1037;-83
2024/04/01 00:45:19;;;;;;;;;;;;;;;;;;414346;23;899;-83
2024/04/01 00:45:29;;;;;;;;;;;;;;;;;;412598;24;998;-83
2024/04/01 00:45:42;;;;;;;;;;;;;;;;;;412484;24;799;-83
2024/04/01 00:45:52;;;;;;;;;;;;;;;;;;412654;24;808;-82
2024/04/01 00:46:03;;;;;;;;;;;;;;;;;;414329;23;1360;-82
2024/04/01 00:46:13;;;;;;;;;;;;;;;;;;414482;23;1332;-83
2024/04/01 00:46:24;;;;;;;;;;;;;;;;;;414503;23;998;-83
2024/04/01 00:46:34;;;;;;;;;;;;;;;;;;418350;23;1260;-82
2024/04/01 00:46:44;;;;;;;;;;;;;;;;;;416424;23;947;-83
2024/04/01 00:46:55;;;;;;;;;;;;;;;;;;416469;23;1042;-83
2024/04/01 00:47:05;;;;;;;;;;;;;;;;;;418242;23;1301;-82
2024/04/01 00:47:15;;;;;;;;;;;;;;;;;;416369;23;1427;-83
2024/04/01 00:47:26;;;;;;;;;;;;;;;;;;414461;23;765;-83
2024/04/01 00:47:36;;;;;;;;;;;;;;;;;;414395;23;1144;-82
2024/04/01 00:47:47;;;;;;;;;;;;;;;;;;412359;24;983;-82
2024/04/01 00:47:59;;;;;;;;;;;;;;;;;;412558;24;1003;-83
2024/04/01 00:48:10;;;;;;;;;;;;;;;;;;410414;24;993;-83
2024/04/01 00:48:21;;;;;;;;;;;;;;;;;;412582;24;1022;-83
2024/04/01 00:48:31;;;;;;;;;;;;;;;;;;412518;24;815;-82
2024/04/01 00:48:41;;;;;;;;;;;;;;;;;;412415;24;884;-82
2024/04/01 00:48:52;;;;;;;;;;;;;;;;;;414264;23;998;-82
2024/04/01 00:49:02;;;;;;;;;;;;;;;;;;416417;23;1298;-82
2024/04/01 00:49:13;;;;;;;;;;;;;;;;;;416381;23;768;-83
2024/04/01 00:49:24;;;;;;;;;;;;;;;;;;416357;23;971;-82
2024/04/01 00:49:34;;;;;;;;;;;;;;;;;;416145;23;1304;-82
2024/04/01 00:49:44;;;;;;;;;;;;;;;;;;416361;23;1137;-83
2024/04/01 00:49:55;;;;;;;;;;;;;;;;;;414105;23;1897;-83
2024/04/01 00:50:06;;;;;;;;;;;;;;;;;;414494;23;1002;-83
2024/04/01 00:50:16;;;;;;;;;;;;;;;;;;416512;23;915;-83
2024/04/01 00:50:30;;;;;;;;;;;;;;;;;;416534;23;807;-83
2024/04/01 00:50:42;;;;;;;;;;;;;;;;;;418256;23;1311;-83
2024/04/01 00:50:53;;;;;;;;;;;;;;;;;;416432;23;800;-82
2024/04/01 00:51:04;;;;;;;;;;;;;;;;;;414449;23;1263;-82
2024/04/01 00:51:15;;;;;;;;;;;;;;;;;;412417;24;1294;-83
2024/04/01 00:51:25;;;;;;;;;;;;;;;;;;414377;23;978;-82
2024/04/01 00:51:36;;;;;;;;;;;;;;;;;;414476;23;951;-83
2024/04/01 00:51:46;;;;;;;;;;;;;;;;;;418273;23;1234;-83
2024/04/01 00:51:56;;;;;;;;;;;;;;;;;;418433;23;847;-83
2024/04/01 00:52:07;;;;;;;;;;;;;;;;;;416444;23;1151;-82
2024/04/01 00:52:17;;;;;;;;;;;;;;;;;;416331;23;978;-83
2024/04/01 00:52:28;;;;;;;;;;;;;;;;;;416458;23;820;-82
2024/04/01 00:52:38;;;;;;;;;;;;;;;;;;416313;23;1013;-82
2024/04/01 00:52:48;;;;;;;;;;;;;;;;;;414415;23;1033;-82
2024/04/01 00:52:59;;;;;;;;;;;;;;;;;;412494;24;991;-83
2024/04/01 00:53:10;;;;;;;;;;;;;;;;;;412548;24;998;-83
2024/04/01 00:53:21;;;;;;;;;;;;;;;;;;412477;24;971;-83
2024/04/01 00:53:31;;;;;;;;;;;;;;;;;;416325;23;1327;-82
2024/04/01 00:53:42;;;;;;;;;;;;;;;;;;416383;23;951;-83
2024/04/01 00:53:53;;;;;;;;;;;;;;;;;;416336;23;986;-83
2024/04/01 00:54:05;;;;;;;;;;;;;;;;;;416375;23;804;-83
2024/04/01 00:54:15;;;;;;;;;;;;;;;;;;416371;23;970;-83
2024/04/01 00:54:26;;;;;;;;;;;;;;;;;;414372;23;1035;-83
2024/04/01 00:54:36;;;;;;;;;;;;;;;;;;412392;24;1384;-82
2024/04/01 00:54:47;;;;;;;;;;;;;;;;;;412349;24;1167;-83
2024/04/01 00:54:58;;;;;;;;;;;;;;;;;;414330;23;931;-82
2024/04/01 00:55:09;;;;;;;;;;;;;;;;;;416202;23;1369;-83
2024/04/01 00:55:20;;;;;;;;;;;;;;;;;;416519;23;800;-83
2024/04/01 00:55:31;;;;;;;;;;;;;;;;;;414257;23;1157;-82
2024/04/01 00:55:42;;;;;;;;;;;;;;;;;;412606;24;967;-83
2024/04/01 00:55:53;;;;;;;;;;;;;;;;;;416377;23;1049;-82
2024/04/01 00:56:04;;;;;;;;;;;;;;;;;;414500;23;1246;-82
2024/04/01 00:56:17;;;;;;;;;;;;;;;;;;414455;23;939;-82
2024/04/01 00:56:28;;;;;;;;;;;;;;;;;;416260;23;1298;-83
2024/04/01 00:56:40;;;;;;;;;;;;;;;;;;414511;23;1229;-83
2024/04/01 00:56:51;;;;;;;;;;;;;;;;;;414390;23;935;-82
2024/04/01 00:57:02;;;;;;;;;;;;;;;;;;412468;24;1328;-82
2024/04/01 00:57:14;;;;;;;;;;;;;;;;;;414305;23;1261;-83
2024/04/01 00:57:25;;;;;;;;;;;;;;;;;;418330;23;1162;-83
2024/04/01 00:57:35;;;;;;;;;;;;;;;;;;416365;23;967;-83
2024/04/01 00:57:46;;;;;;;;;;;;;;;;;;414146;23;1180;-83
2024/04/01 00:57:58;;;;;;;;;;;;;;;;;;416157;23;1244;-82
2024/04/01 00:58:08;;;;;;;;;;;;;;;;;;414470;23;896;-83
2024/04/01 00:58:19;;;;;;;;;;;;;;;;;;414196;23;1146;-82
2024/04/01 00:58:30;;;;;;;;;;;;;;;;;;416326;23;1385;-82
2024/04/01 00:58:40;;;;;;;;;;;;;;;;;;412537;24;943;-82
2024/04/01 00:58:52;;;;;;;;;;;;;;;;;;414426;23;1306;-83
2024/04/01 00:59:03;;;;;;;;;;;;;;;;;;414489;23;998;-82
2024/04/01 00:59:14;;;;;;;;;;;;;;;;;;416516;23;816;-83
2024/04/01 00:59:25;;;;;;;;;;;;;;;;;;418312;23;1160;-83
2024/04/01 00:59:35;;;;;;;;;;;;;;;;;;420149;23;811;-81
2024/04/01 00:59:46;;;;;;;;;;;;;;;;;;418507;23;1013;-82
2024/04/01 00:59:56;;;;;;;;;;;;;;;;;;418445;23;1354;-82
2024/04/01 01:00:07;;;;;;;;;;;;;;;;;;418285;23;1164;-83
2024/04/01 01:00:17;;;;;;;;;;;;;;;;;;416461;23;946;-82
2024/04/01 01:00:28;;;;;;;;;;;;;;;;;;420468;23;1287;-83
2024/04/01 01:00:39;;;;;;;;;;;;;;;;;;416438;23;1199;-81
2024/04/01 01:00:49;;;;;;;;;;;;;;;;;;416459;23;1285;-82
2024/04/01 01:01:00;;;;;;;;;;;;;;;;;;410672;24;1152;-82
2024/04/01 01:01:11;;;;;;;;;;;;;;;;;;410695;24;947;-82
2024/04/01 01:01:22;;;;;;;;;;;;;;;;;;410782;24;785;-83
2024/04/01 01:01:33;;;;;;;;;;;;;;;;;;416472;23;1155;-82
2024/04/01 01:01:45;;;;;;;;;;;;;;;;;;414635;23;1003;-82
2024/04/01 01:01:56;;;;;;;;;;;;;;;;;;416624;23;1042;-83
2024/04/01 01:02:06;;;;;;;;;;;;;;;;;;416560;23;954;-82
2024/04/01 01:02:17;;;;;;;;;;;;;;;;;;416540;23;1017;-82
2024/04/01 01:02:29;;;;;;;;;;;;;;;;;;416376;23;1156;-83
2024/04/01 01:02:40;;;;;;;;;;;;;;;;;;412656;23;1170;-83
2024/04/01 01:02:51;;;;;;;;;;;;;;;;;;412363;24;1167;-83
2024/04/01 01:03:02;;;;;;;;;;;;;;;;;;412673;24;927;-83
2024/04/01 01:03:12;;;;;;;;;;;;;;;;;;412615;24;816;-82
2024/04/01 01:03:23;;;;;;;;;;;;;;;;;;412613;24;1415;-82
2024/04/01 01:03:36;;;;;;;;;;;;;;;;;;414267;23;1402;-82
2024/04/01 01:03:47;;;;;;;;;;;;;;;;;;414588;23;852;-83
2024/04/01 01:03:58;;;;;;;;;;;;;;;;;;416598;23;1429;-83
2024/04/01 01:04:08;;;;;;;;;;;;;;;;;;416384;23;1190;-83
2024/04/01 01:04:18;;;;;;;;;;;;;;;;;;414576;23;1275;-82
2024/04/01 01:04:29;;;;;;;;;;;;;;;;;;416482;23;935;-82
2024/04/01 01:04:41;;;;;;;;;;;;;;;;;;416572;23;969;-83
2024/04/01 01:04:51;;;;;;;;;;;;;;;;;;414497;23;1256;-82
2024/04/01 01:05:02;;;;;;;;;;;;;;;;;;416625;23;753;-83
2024/04/01 01:05:15;;;;;;;;;;;;;;;;;;416610;23;808;-83
2024/04/01 01:05:26;;;;;;;;;;;;;;;;;;416331;23;1269;-83
2024/04/01 01:05:36;;;;;;;;;;;;;;;;;;410577;24;1185;-83
2024/04/01 01:05:47;;;;;;;;;;;;;;;;;;414664;23;1006;-82
2024/04/01 01:05:57;;;;;;;;;;;;;;;;;;416512;23;946;-83
2024/04/01 01:06:11;;;;;;;;;;;;;;;;;;414502;23;1147;-82
2024/04/01 01:06:23;;;;;;;;;;;;;;;;;;414564;23;974;-83
2024/04/01 01:06:34;;;;;;;;;;;;;;;;;;414622;23;1003;-82
2024/04/01 01:06:46;;;;;;;;;;;;;;;;;;416517;23;1164;-83
2024/04/01 01:06:56;;;;;;;;;;;;;;;;;;414504;23;1041;-83
2024/04/01 01:07:07;;;;;;;;;;;;;;;;;;414560;23;1014;-83
2024/04/01 01:07:17;;;;;;;;;;;;;;;;;;414623;23;967;-83
2024/04/01 01:07:28;;;;;;;;;;;;;;;;;;414538;23;1199;-82
2024/04/01 01:07:38;;;;;;;;;;;;;;;;;;414548;23;959;-82
2024/04/01 01:07:50;;;;;;;;;;;;;;;;;;416572;23;1169;-82
2024/04/01 01:08:00;;;;;;;;;;;;;;;;;;418369;23;994;-82
2024/04/01 01:08:11;;;;;;;;;;;;;;;;;;418416;23;1226;-83
2024/04/01 01:08:24;;;;;;;;;;;;;;;;;;416571;23;1002;-83
2024/04/01 01:08:35;;;;;;;;;;;;;;;;;;412710;24;983;-82
2024/04/01 01:08:45;;;;;;;;;;;;;;;;;;414573;23;907;-82
2024/04/01 01:08:56;;;;;;;;;;;;;;;;;;414610;23;1175;-83
2024/04/01 01:09:07;;;;;;;;;;;;;;;;;;414562;23;1245;-82
2024/04/01 01:09:17;;;;;;;;;;;;;;;;;;416483;23;1057;-82
2024/04/01 01:09:28;;;;;;;;;;;;;;;;;;418551;23;796;-82
2024/04/01 01:09:39;;;;;;;;;;;;;;;;;;418549;23;785;-83
2024/04/01 01:09:50;;;;;;;;;;;;;;;;;;416569;23;986;-83
2024/04/01 01:10:00;;;;;;;;;;;;;;;;;;414376;23;1893;-82
2024/04/01 01:10:11;;;;;;;;;;;;;;;;;;414567;23;963;-82
2024/04/01 01:10:23;;;;;;;;;;;;;;;;;;414537;23;1168;-82
2024/04/01 01:10:33;;;;;;;;;;;;;;;;;;414530;23;950;-83
2024/04/01 01:10:44;;;;;;;;;;;;;;;;;;416493;23;1218;-83
2024/04/01 01:10:54;;;;;;;;;;;;;;;;;;418223;23;1017;-82
2024/04/01 01:11:05;;;;;;;;;;;;;;;;;;418623;23;914;-82
2024/04/01 01:11:15;;;;;;;;;;;;;;;;;;420529;23;765;-83
2024/04/01 01:11:25;;;;;;;;;;;;;;;;;;418467;23;1357;-82
2024/04/01 01:11:36;;;;;;;;;;;;;;;;;;414489;23;1436;-82
2024/04/01 01:11:46;;;;;;;;;;;;;;;;;;416683;23;792;-82
2024/04/01 01:11:56;;;;;;;;;;;;;;;;;;414315;23;1345;-83
2024/04/01 01:12:07;;;;;;;;;;;;;;;;;;414573;23;1144;-83
2024/04/01 01:12:17;;;;;;;;;;;;;;;;;;414608;23;984;-82
2024/04/01 01:12:27;;;;;;;;;;;;;;;;;;414457;23;983;-82
2024/04/01 01:12:38;;;;;;;;;;;;;;;;;;414491;23;1293;-83
2024/04/01 01:12:48;;;;;;;;;;;;;;;;;;414714;23;843;-83
2024/04/01 01:12:58;;;;;;;;;;;;;;;;;;414474;23;1013;-83
2024/04/01 01:13:08;;;;;;;;;;;;;;;;;;414704;23;942;-83
2024/04/01 01:13:19;;;;;;;;;;;;;;;;;;414423;23;1163;-83
2024/04/01 01:13:29;;;;;;;;;;;;;;;;;;412560;24;1261;-83
2024/04/01 01:13:39;;;;;;;;;;;;;;;;;;414464;23;1147;-82
2024/04/01 01:13:49;;;;;;;;;;;;;;;;;;412718;24;788;-83
2024/04/01 01:14:00;;;;;;;;;;;;;;;;;;412440;24;1229;-82
2024/04/01 01:14:11;;;;;;;;;;;;;;;;;;412614;24;955;-82
2024/04/01 01:14:21;;;;;;;;;;;;;;;;;;414577;23;931;-82
2024/04/01 01:14:31;;;;;;;;;;;;;;;;;;414590;23;958;-82
2024/04/01 01:14:42;;;;;;;;;;;;;;;;;;414615;23;990;-82
2024/04/01 01:14:52;;;;;;;;;;;;;;;;;;416522;23;1263;-82
2024/04/01 01:15:02;;;;;;;;;;;;;;;;;;414485;23;1142;-82
2024/04/01 01:15:12;;;;;;;;;;;;;;;;;;414592;23;856;-83
2024/04/01 01:15:24;;;;;;;;;;;;;;;;;;412604;24;947;-82
2024/04/01 01:15:34;;;;;;;;;;;;;;;;;;412660;24;1030;-83